createdAt,value
2019-05-09T00:00:47.319Z,92.69
2019-05-09T00:01:47.290Z,91.67
2019-05-09T00:02:47.275Z,92.49
2019-05-09T00:03:47.258Z,93.00
2019-05-09T00:04:47.254Z,92.69
2019-05-09T00:05:47.250Z,92.49
2019-05-09T00:06:47.242Z,93.00
2019-05-09T00:07:47.240Z,92.83
2019-05-09T00:08:47.221Z,92.69
2019-05-09T00:09:47.195Z,92.94
2019-05-09T00:10:47.199Z,91.91
2019-05-09T00:11:47.172Z,93.04
2019-05-09T00:12:47.163Z,92.02
2019-05-09T00:13:47.159Z,92.32
2019-05-09T00:14:47.146Z,91.91
2019-05-09T00:15:47.160Z,92.02
2019-05-09T00:16:47.128Z,92.63
2019-05-09T00:17:47.123Z,92.12
2019-05-09T00:18:47.103Z,92.22
2019-05-09T00:19:47.092Z,91.82
2019-05-09T00:20:47.077Z,91.71
2019-05-09T00:21:47.067Z,91.50
2019-05-09T00:22:47.058Z,91.61
2019-05-09T00:23:47.064Z,91.61
2019-05-09T00:24:47.045Z,91.50
2019-05-09T00:25:47.022Z,91.61
2019-05-09T00:26:47.055Z,91.82
2019-05-09T00:27:47.000Z,91.50
2019-05-09T00:28:47.013Z,91.71
2019-05-09T00:29:47.036Z,91.61
2019-05-09T00:30:46.967Z,91.91
2019-05-09T00:31:46.969Z,91.50
2019-05-09T00:32:46.981Z,91.30
2019-05-09T00:33:48.163Z,92.12
2019-05-09T00:34:46.926Z,91.71
2019-05-09T00:35:46.928Z,91.61
2019-05-09T00:36:46.917Z,91.71
2019-05-09T00:37:46.894Z,91.71
2019-05-09T00:38:46.875Z,91.91
2019-05-09T00:39:46.875Z,91.30
2019-05-09T00:40:57.762Z,91.09
2019-05-09T00:41:47.878Z,91.71
2019-05-09T00:42:46.833Z,91.40
2019-05-09T00:43:46.833Z,92.12
2019-05-09T00:44:46.808Z,91.71
2019-05-09T00:45:46.810Z,92.06
2019-05-09T00:46:46.827Z,91.71
2019-05-09T00:47:46.777Z,91.55
2019-05-09T00:48:46.768Z,91.09
2019-05-09T00:49:46.754Z,91.75
2019-05-09T00:50:46.745Z,91.61
2019-05-09T00:51:46.771Z,91.40
2019-05-09T00:52:46.723Z,91.71
2019-05-09T00:53:46.714Z,91.96
2019-05-09T00:54:46.729Z,91.50
2019-05-09T00:55:46.690Z,92.32
2019-05-09T00:56:46.695Z,92.36
2019-05-09T00:57:46.672Z,91.82
2019-05-09T00:58:46.671Z,92.27
2019-05-09T00:59:46.670Z,92.27
2019-05-09T01:00:46.662Z,92.16
2019-05-09T01:01:46.622Z,91.96
2019-05-09T01:02:46.629Z,92.06
2019-05-09T01:03:46.602Z,91.96
2019-05-09T01:04:46.593Z,91.75
2019-05-09T01:05:47.545Z,91.55
2019-05-09T01:06:46.567Z,91.75
2019-05-09T01:07:46.573Z,92.36
2019-05-09T01:08:46.544Z,92.27
2019-05-09T01:09:46.541Z,92.16
2019-05-09T01:10:46.524Z,91.75
2019-05-09T01:11:46.547Z,91.75
2019-05-09T01:12:46.505Z,91.65
2019-05-09T01:13:46.531Z,91.86
2019-05-09T01:14:46.486Z,91.96
2019-05-09T01:15:46.467Z,91.65
2019-05-09T01:16:46.477Z,92.16
2019-05-09T01:17:46.446Z,92.36
2019-05-09T01:18:46.463Z,91.96
2019-05-09T01:19:46.451Z,92.36
2019-05-09T01:20:46.459Z,91.86
2019-05-09T01:21:46.418Z,92.06
2019-05-09T01:22:46.404Z,92.27
2019-05-09T01:23:46.402Z,91.96
2019-05-09T01:24:46.400Z,91.75
2019-05-09T01:25:46.359Z,91.75
2019-05-09T01:26:46.352Z,91.96
2019-05-09T01:27:46.336Z,92.36
2019-05-09T01:28:46.344Z,91.96
2019-05-09T01:29:48.176Z,92.47
2019-05-09T01:30:46.315Z,91.35
2019-05-09T01:31:46.294Z,92.06
2019-05-09T01:32:46.326Z,92.57
2019-05-09T01:33:46.276Z,91.75
2019-05-09T01:34:46.285Z,92.27
2019-05-09T01:35:46.259Z,92.06
2019-05-09T01:36:46.250Z,91.96
2019-05-09T01:37:46.252Z,91.80
2019-05-09T01:38:46.230Z,92.47
2019-05-09T01:39:46.211Z,91.65
2019-05-09T01:40:46.239Z,91.96
2019-05-09T01:41:46.198Z,91.80
2019-05-09T01:42:46.171Z,92.36
2019-05-09T01:43:46.167Z,91.65
2019-05-09T01:44:46.150Z,91.75
2019-05-09T01:45:47.197Z,91.96
2019-05-09T01:46:46.134Z,91.96
2019-05-09T01:47:46.139Z,91.96
2019-05-09T01:48:46.111Z,92.10
2019-05-09T01:49:46.124Z,92.00
2019-05-09T01:50:46.086Z,91.96
2019-05-09T01:51:46.072Z,91.90
2019-05-09T01:52:46.081Z,92.16
2019-05-09T01:53:46.075Z,92.00
2019-05-09T01:54:46.054Z,92.21
2019-05-09T01:55:46.027Z,92.31
2019-05-09T01:56:46.028Z,92.41
2019-05-09T01:57:47.958Z,92.21
2019-05-09T01:58:46.032Z,92.51
2019-05-09T01:59:46.002Z,92.21
2019-05-09T02:00:45.971Z,92.31
2019-05-09T02:01:45.964Z,92.41
2019-05-09T02:02:45.950Z,91.90
2019-05-09T02:03:45.947Z,92.31
2019-05-09T02:04:45.945Z,92.14
2019-05-09T02:05:45.930Z,92.82
2019-05-09T02:06:45.921Z,92.76
2019-05-09T02:07:45.938Z,92.86
2019-05-09T02:08:45.892Z,92.86
2019-05-09T02:09:45.910Z,92.97
2019-05-09T02:10:45.884Z,92.86
2019-05-09T02:11:45.910Z,92.76
2019-05-09T02:12:45.862Z,92.76
2019-05-09T02:13:45.842Z,93.07
2019-05-09T02:14:45.818Z,92.93
2019-05-09T02:15:54.444Z,92.86
2019-05-09T02:16:53.795Z,92.97
2019-05-09T02:18:01.374Z,92.61
2019-05-09T02:19:59.376Z,92.76
2019-05-09T02:21:06.935Z,92.86
2019-05-09T02:22:07.940Z,92.86
2019-05-09T02:23:09.462Z,93.07
2019-05-09T02:24:06.914Z,92.97
2019-05-09T02:25:06.871Z,92.97
2019-05-09T02:25:59.299Z,93.12
2019-05-09T02:26:59.313Z,92.70
2019-05-09T02:27:59.320Z,92.97
2019-05-09T02:28:59.281Z,93.27
2019-05-09T02:29:59.255Z,93.32
2019-05-09T02:30:59.261Z,93.01
2019-05-09T02:31:59.245Z,93.12
2019-05-09T02:32:59.290Z,93.01
2019-05-09T02:33:59.208Z,93.12
2019-05-09T02:34:59.206Z,93.12
2019-05-09T02:36:01.823Z,93.01
2019-05-09T02:36:59.178Z,93.21
2019-05-09T02:37:59.179Z,93.12
2019-05-09T02:38:59.226Z,93.01
2019-05-09T02:39:59.419Z,92.91
2019-05-09T02:40:59.654Z,92.86
2019-05-09T02:42:08.411Z,92.97
2019-05-09T02:43:00.114Z,92.97
2019-05-09T02:43:59.123Z,92.91
2019-05-09T02:44:59.598Z,93.01
2019-05-09T02:45:59.657Z,92.80
2019-05-09T02:46:59.152Z,93.01
2019-05-09T02:47:59.157Z,93.42
2019-05-09T02:48:59.626Z,93.12
2019-05-09T02:49:59.216Z,92.91
2019-05-09T02:51:00.331Z,92.91
2019-05-09T02:51:59.542Z,93.01
2019-05-09T02:52:59.227Z,92.80
2019-05-09T02:53:59.000Z,92.95
2019-05-09T02:54:59.001Z,93.16
2019-05-09T02:55:58.983Z,93.16
2019-05-09T02:56:59.047Z,93.05
2019-05-09T02:57:59.314Z,92.85
2019-05-09T02:58:59.129Z,93.26
2019-05-09T02:59:59.365Z,93.16
2019-05-09T03:00:59.808Z,93.16
2019-05-09T03:01:58.908Z,92.74
2019-05-09T03:02:59.747Z,92.95
2019-05-09T03:03:59.091Z,93.16
2019-05-09T03:04:58.874Z,93.36
2019-05-09T03:05:59.863Z,93.26
2019-05-09T03:06:59.933Z,93.05
2019-05-09T03:07:58.853Z,92.64
2019-05-09T03:08:59.542Z,93.26
2019-05-09T03:09:58.808Z,93.05
2019-05-09T03:10:59.230Z,93.26
2019-05-09T03:11:59.323Z,93.05
2019-05-09T03:12:59.783Z,93.16
2019-05-09T03:13:58.907Z,93.26
2019-05-09T03:14:58.895Z,93.51
2019-05-09T03:15:58.762Z,93.26
2019-05-09T03:16:59.055Z,93.30
2019-05-09T03:17:59.958Z,93.46
2019-05-09T03:18:58.740Z,93.16
2019-05-09T03:19:58.767Z,93.10
2019-05-09T03:20:58.705Z,93.26
2019-05-09T03:21:58.694Z,93.20
2019-05-09T03:22:58.677Z,92.79
2019-05-09T03:23:59.291Z,93.20
2019-05-09T03:24:58.921Z,92.99
2019-05-09T03:25:59.114Z,93.20
2019-05-09T03:26:59.507Z,93.20
2019-05-09T03:27:58.860Z,92.69
2019-05-09T03:28:59.258Z,92.99
2019-05-09T03:29:59.074Z,93.20
2019-05-09T03:30:59.398Z,92.89
2019-05-09T03:32:00.044Z,93.10
2019-05-09T03:32:59.667Z,93.40
2019-05-09T03:33:59.683Z,93.20
2019-05-09T03:34:58.546Z,92.99
2019-05-09T03:35:58.513Z,93.10
2019-05-09T03:36:58.502Z,93.40
2019-05-09T03:37:58.497Z,92.99
2019-05-09T03:38:58.477Z,92.99
2019-05-09T03:39:58.477Z,93.10
2019-05-09T03:40:58.473Z,93.20
2019-05-09T03:41:58.449Z,93.20
2019-05-09T03:42:58.435Z,92.99
2019-05-09T03:43:58.708Z,93.10
2019-05-09T03:44:58.440Z,93.10
2019-05-09T03:45:58.618Z,93.10
2019-05-09T03:46:58.404Z,92.89
2019-05-09T03:47:58.382Z,93.40
2019-05-09T03:48:58.391Z,93.10
2019-05-09T03:49:58.714Z,93.51
2019-05-09T03:50:58.375Z,93.10
2019-05-09T03:51:58.585Z,93.40
2019-05-09T03:52:58.327Z,93.30
2019-05-09T03:53:58.333Z,92.69
2019-05-09T03:54:58.322Z,93.20
2019-05-09T03:55:58.292Z,92.69
2019-05-09T03:56:58.325Z,92.69
2019-05-09T03:57:58.289Z,93.10
2019-05-09T03:58:58.265Z,93.20
2019-05-09T03:59:58.245Z,92.99
2019-05-09T04:00:58.246Z,92.99
2019-05-09T04:01:58.950Z,92.89
2019-05-09T04:02:58.241Z,92.79
2019-05-09T04:03:58.487Z,92.79
2019-05-09T04:04:58.219Z,92.99
2019-05-09T04:06:02.685Z,92.99
2019-05-09T04:06:58.247Z,92.79
2019-05-09T04:07:58.388Z,92.79
2019-05-09T04:08:58.617Z,92.79
2019-05-09T04:09:58.545Z,92.99
2019-05-09T04:10:58.816Z,93.10
2019-05-09T04:12:00.199Z,92.89
2019-05-09T04:12:59.600Z,92.99
2019-05-09T04:13:58.238Z,92.89
2019-05-09T04:14:58.474Z,93.10
2019-05-09T04:15:58.336Z,92.79
2019-05-09T04:16:58.065Z,92.99
2019-05-09T04:17:58.067Z,93.20
2019-05-09T04:18:58.277Z,92.99
2019-05-09T04:19:58.040Z,92.38
2019-05-09T04:20:58.028Z,92.17
2019-05-09T04:21:58.001Z,92.07
2019-05-09T04:22:59.524Z,92.38
2019-05-09T04:23:58.574Z,92.38
2019-05-09T04:24:57.968Z,92.27
2019-05-09T04:25:58.368Z,92.27
2019-05-09T04:26:57.954Z,92.48
2019-05-09T04:27:58.440Z,92.38
2019-05-09T04:28:57.951Z,92.21
2019-05-09T04:29:57.907Z,92.27
2019-05-09T04:30:58.232Z,92.38
2019-05-09T04:31:57.888Z,91.97
2019-05-09T04:32:58.228Z,92.63
2019-05-09T04:33:57.876Z,92.17
2019-05-09T04:34:57.911Z,91.86
2019-05-09T04:35:58.038Z,92.07
2019-05-09T04:36:57.908Z,92.38
2019-05-09T04:37:58.424Z,92.69
2019-05-09T04:38:57.863Z,92.58
2019-05-09T04:40:01.586Z,92.38
2019-05-09T04:40:58.782Z,92.38
2019-05-09T04:42:03.479Z,92.27
2019-05-09T04:43:11.360Z,92.38
2019-05-09T04:43:58.750Z,92.01
2019-05-09T04:45:03.055Z,92.27
2019-05-09T04:45:58.751Z,93.30
2019-05-09T04:47:00.090Z,92.79
2019-05-09T04:47:58.700Z,92.89
2019-05-09T04:48:59.366Z,92.99
2019-05-09T04:49:58.373Z,93.30
2019-05-09T04:50:59.533Z,92.99
2019-05-09T04:51:58.432Z,92.07
2019-05-09T04:52:58.074Z,92.99
2019-05-09T04:53:58.385Z,93.10
2019-05-09T04:54:57.700Z,92.95
2019-05-09T04:55:58.122Z,93.10
2019-05-09T04:56:57.652Z,92.95
2019-05-09T04:58:00.071Z,92.99
2019-05-09T04:58:58.375Z,92.99
2019-05-09T04:59:57.636Z,93.10
2019-05-09T05:00:57.578Z,92.44
2019-05-09T05:01:58.208Z,92.33
2019-05-09T05:02:57.660Z,92.33
2019-05-09T05:03:57.549Z,92.13
2019-05-09T05:04:58.567Z,93.26
2019-05-09T05:05:58.558Z,92.08
2019-05-09T05:06:58.500Z,92.19
2019-05-09T05:07:57.497Z,92.64
2019-05-09T05:08:58.589Z,91.67
2019-05-09T05:09:57.715Z,92.50
2019-05-09T05:10:58.226Z,91.88
2019-05-09T05:11:58.143Z,91.67
2019-05-09T05:12:57.422Z,90.85
2019-05-09T05:13:58.593Z,90.61
2019-05-09T05:14:58.070Z,90.61
2019-05-09T05:15:57.930Z,90.50
2019-05-09T05:17:06.338Z,90.71
2019-05-09T05:17:58.386Z,90.75
2019-05-09T05:18:58.414Z,90.50
2019-05-09T05:19:58.011Z,90.81
2019-05-09T05:20:57.664Z,90.87
2019-05-09T05:21:58.349Z,90.46
2019-05-09T05:22:58.096Z,89.70
2019-05-09T05:23:57.718Z,88.98
2019-05-09T05:24:59.689Z,89.09
2019-05-09T05:25:58.021Z,88.78
2019-05-09T05:26:57.891Z,88.68
2019-05-09T05:27:58.088Z,89.50
2019-05-09T05:28:58.048Z,88.88
2019-05-09T05:29:58.283Z,87.92
2019-05-09T05:30:58.229Z,87.71
2019-05-09T05:31:58.071Z,87.61
2019-05-09T05:32:57.910Z,87.06
2019-05-09T05:33:57.861Z,86.85
2019-05-09T05:34:57.334Z,86.14
2019-05-09T05:35:57.462Z,86.24
2019-05-09T05:36:58.245Z,86.96
2019-05-09T05:37:58.077Z,86.55
2019-05-09T05:38:58.467Z,86.48
2019-05-09T05:39:58.278Z,86.18
2019-05-09T05:40:57.869Z,86.90
2019-05-09T05:41:57.647Z,86.14
2019-05-09T05:42:58.557Z,86.44
2019-05-09T05:43:58.062Z,86.24
2019-05-09T05:44:58.281Z,86.34
2019-05-09T05:45:58.449Z,85.72
2019-05-09T05:46:58.522Z,84.91
2019-05-09T05:47:57.601Z,84.77
2019-05-09T05:48:57.782Z,85.03
2019-05-09T05:49:57.776Z,84.93
2019-05-09T05:50:57.821Z,84.31
2019-05-09T05:51:57.642Z,84.52
2019-05-09T05:52:57.800Z,83.50
2019-05-09T05:53:57.480Z,83.50
2019-05-09T05:54:58.219Z,83.50
2019-05-09T05:55:58.024Z,83.81
2019-05-09T05:56:57.832Z,83.81
2019-05-09T05:57:57.939Z,83.70
2019-05-09T05:58:58.121Z,83.25
2019-05-09T05:59:58.542Z,83.36
2019-05-09T06:00:58.922Z,83.05
2019-05-09T06:01:58.338Z,83.66
2019-05-09T06:02:58.527Z,82.89
2019-05-09T06:03:58.671Z,82.51
2019-05-09T06:04:57.926Z,84.15
2019-05-09T06:05:58.493Z,84.36
2019-05-09T06:06:58.894Z,83.54
2019-05-09T06:07:57.710Z,83.54
2019-05-09T06:08:57.945Z,83.84
2019-05-09T06:09:57.613Z,84.36
2019-05-09T06:10:57.638Z,84.63
2019-05-09T06:11:57.750Z,83.36
2019-05-09T06:12:57.509Z,81.44
2019-05-09T06:14:04.291Z,80.89
2019-05-09T06:14:58.266Z,79.22
2019-05-09T06:15:58.660Z,78.27
2019-05-09T06:16:58.797Z,77.65
2019-05-09T06:17:57.917Z,76.59
2019-05-09T06:18:58.588Z,76.32
2019-05-09T06:19:58.983Z,75.51
2019-05-09T06:20:58.350Z,74.90
2019-05-09T06:21:57.390Z,74.08
2019-05-09T06:22:58.187Z,75.71
2019-05-09T06:23:58.462Z,74.86
2019-05-09T06:24:58.265Z,73.84
2019-05-09T06:25:58.697Z,74.18
2019-05-09T06:26:58.589Z,74.58
2019-05-09T06:27:58.423Z,74.04
2019-05-09T06:28:57.683Z,73.67
2019-05-09T06:29:58.137Z,74.08
2019-05-09T06:30:58.475Z,74.21
2019-05-09T06:31:58.426Z,75.10
2019-05-09T06:32:58.058Z,75.16
2019-05-09T06:33:57.794Z,73.80
2019-05-09T06:34:57.817Z,72.62
2019-05-09T06:35:58.677Z,73.02
2019-05-09T06:36:58.518Z,73.47
2019-05-09T06:37:58.800Z,72.96
2019-05-09T06:38:58.842Z,72.86
2019-05-09T06:39:58.250Z,74.18
2019-05-09T06:40:58.082Z,73.64
2019-05-09T06:41:57.565Z,73.84
2019-05-09T06:42:59.012Z,73.16
2019-05-09T06:44:12.647Z,73.74
2019-05-09T06:44:58.424Z,73.67
2019-05-09T06:45:57.548Z,73.57
2019-05-09T06:46:58.504Z,74.42
2019-05-09T06:48:00.017Z,75.60
2019-05-09T06:49:19.492Z,73.71
2019-05-09T06:49:57.523Z,74.62
2019-05-09T06:50:57.690Z,75.85
2019-05-09T06:51:58.062Z,75.54
2019-05-09T06:52:57.321Z,75.78
2019-05-09T06:53:58.390Z,75.98
2019-05-09T06:54:58.224Z,77.62
2019-05-09T06:55:57.982Z,75.88
2019-05-09T06:56:58.378Z,75.88
2019-05-09T06:57:58.368Z,77.11
2019-05-09T06:58:58.256Z,75.98
2019-05-09T06:59:57.848Z,76.80
2019-05-09T07:00:58.295Z,75.57
2019-05-09T07:01:57.582Z,75.98
2019-05-09T07:03:00.044Z,76.56
2019-05-09T07:03:57.496Z,77.07
2019-05-09T07:04:58.052Z,75.74
2019-05-09T07:05:57.558Z,76.05
2019-05-09T07:06:58.643Z,76.46
2019-05-09T07:07:57.538Z,76.93
2019-05-09T07:08:58.339Z,75.51
2019-05-09T07:09:58.400Z,74.93
2019-05-09T07:10:58.317Z,75.23
2019-05-09T07:11:58.480Z,75.95
2019-05-09T07:12:58.341Z,76.15
2019-05-09T07:13:57.909Z,76.66
2019-05-09T07:14:58.161Z,75.51
2019-05-09T07:15:58.363Z,75.71
2019-05-09T07:16:58.295Z,75.71
2019-05-09T07:17:57.519Z,75.30
2019-05-09T07:18:57.883Z,75.40
2019-05-09T07:19:58.728Z,77.00
2019-05-09T07:20:57.701Z,75.57
2019-05-09T07:21:57.953Z,74.96
2019-05-09T07:22:58.339Z,74.35
2019-05-09T07:23:58.068Z,74.58
2019-05-09T07:25:01.023Z,74.58
2019-05-09T07:25:58.238Z,75.92
2019-05-09T07:26:58.227Z,76.79
2019-05-09T07:27:58.506Z,74.86
2019-05-09T07:28:55.891Z,75.47
2019-05-09T07:29:55.879Z,75.88
2019-05-09T07:30:57.314Z,75.43
2019-05-09T07:31:57.292Z,76.69
2019-05-09T07:32:58.019Z,74.52
2019-05-09T07:33:58.551Z,74.93
2019-05-09T07:34:57.800Z,77.67
2019-05-09T07:35:57.942Z,75.74
2019-05-09T07:36:57.953Z,74.15
2019-05-09T07:37:57.901Z,75.84
2019-05-09T07:38:58.091Z,74.48
2019-05-09T07:39:57.699Z,73.36
2019-05-09T07:40:57.942Z,73.13
2019-05-09T07:41:57.721Z,75.40
2019-05-09T07:42:58.201Z,73.26
2019-05-09T07:43:58.096Z,72.62
2019-05-09T07:44:55.711Z,73.06
2019-05-09T07:45:57.955Z,73.16
2019-05-09T07:46:57.925Z,73.26
2019-05-09T07:47:58.140Z,74.08
2019-05-09T07:48:57.777Z,73.06
2019-05-09T07:49:55.651Z,72.69
2019-05-09T07:50:55.640Z,73.71
2019-05-09T07:51:55.675Z,73.71
2019-05-09T07:52:57.959Z,73.10
2019-05-09T07:53:55.606Z,74.01
2019-05-09T07:54:57.873Z,74.11
2019-05-09T07:55:55.583Z,73.77
2019-05-09T07:56:57.859Z,72.96
2019-05-09T07:57:56.356Z,73.77
2019-05-09T07:58:55.551Z,72.96
2019-05-09T07:59:55.540Z,73.16
2019-05-09T08:01:00.763Z,72.92
2019-05-09T08:01:58.194Z,72.92
2019-05-09T08:02:57.967Z,73.33
2019-05-09T08:03:58.150Z,72.17
2019-05-09T08:04:57.852Z,72.78
2019-05-09T08:05:57.857Z,73.46
2019-05-09T08:06:57.712Z,72.34
2019-05-09T08:07:55.455Z,72.65
2019-05-09T08:08:57.915Z,71.70
2019-05-09T08:09:57.778Z,71.20
2019-05-09T08:10:55.417Z,71.40
2019-05-09T08:11:55.403Z,69.78
2019-05-09T08:12:55.405Z,70.25
2019-05-09T08:13:57.506Z,70.18
2019-05-09T08:15:08.562Z,71.16
2019-05-09T08:15:58.371Z,71.40
2019-05-09T08:16:57.745Z,70.79
2019-05-09T08:17:55.337Z,69.74
2019-05-09T08:18:57.596Z,70.38
2019-05-09T08:19:55.336Z,70.79
2019-05-09T08:20:57.112Z,70.99
2019-05-09T08:21:57.338Z,69.74
2019-05-09T08:22:58.692Z,69.00
2019-05-09T08:23:57.873Z,69.54
2019-05-09T08:24:57.512Z,69.00
2019-05-09T08:25:57.720Z,70.25
2019-05-09T08:26:55.234Z,69.95
2019-05-09T08:27:55.226Z,70.59
2019-05-09T08:28:55.219Z,69.57
2019-05-09T08:29:55.200Z,69.50
2019-05-09T08:30:55.224Z,70.35
2019-05-09T08:31:55.179Z,70.92
2019-05-09T08:32:55.168Z,71.12
2019-05-09T08:33:55.156Z,70.62
2019-05-09T08:34:57.465Z,71.80
2019-05-09T08:35:55.133Z,69.54
2019-05-09T08:36:55.173Z,70.25
2019-05-09T08:37:55.115Z,68.73
2019-05-09T08:38:55.157Z,69.67
2019-05-09T08:39:57.582Z,70.21
2019-05-09T08:40:55.079Z,71.33
2019-05-09T08:41:55.114Z,71.43
2019-05-09T08:42:55.088Z,71.94
2019-05-09T08:43:57.414Z,70.72
2019-05-09T08:44:57.615Z,70.18
2019-05-09T08:45:55.024Z,71.57
2019-05-09T08:46:57.291Z,69.34
2019-05-09T08:47:55.018Z,68.86
2019-05-09T08:48:57.393Z,70.59
2019-05-09T08:49:54.993Z,69.70
2019-05-09T08:50:54.967Z,70.31
2019-05-09T08:52:08.975Z,69.84
2019-05-09T08:52:57.665Z,69.00
2019-05-09T08:53:54.932Z,67.98
2019-05-09T08:54:54.954Z,68.49
2019-05-09T08:55:54.911Z,68.66
2019-05-09T08:56:54.898Z,68.76
2019-05-09T08:57:54.888Z,67.88
2019-05-09T08:58:59.379Z,68.62
2019-05-09T08:59:55.864Z,68.49
2019-05-09T09:00:54.874Z,67.95
2019-05-09T09:02:12.258Z,67.92
2019-05-09T09:02:57.396Z,66.70
2019-05-09T09:03:54.836Z,67.00
2019-05-09T09:04:54.814Z,66.02
2019-05-09T09:05:54.797Z,66.94
2019-05-09T09:06:54.810Z,67.41
2019-05-09T09:07:54.778Z,67.00
2019-05-09T09:08:54.765Z,66.09
2019-05-09T09:09:54.766Z,66.94
2019-05-09T09:10:54.741Z,65.79
2019-05-09T09:11:54.730Z,66.88
2019-05-09T09:12:54.754Z,66.80
2019-05-09T09:13:54.710Z,66.91
2019-05-09T09:14:54.714Z,65.59
2019-05-09T09:16:12.132Z,66.91
2019-05-09T09:16:57.609Z,67.82
2019-05-09T09:17:54.662Z,65.99
2019-05-09T09:18:54.665Z,66.63
2019-05-09T09:19:54.641Z,66.26
2019-05-09T09:20:54.644Z,65.45
2019-05-09T09:21:59.627Z,66.86
2019-05-09T09:22:58.034Z,67.41
2019-05-09T09:23:54.595Z,66.49
2019-05-09T09:24:54.634Z,68.12
2019-05-09T09:25:54.578Z,68.12
2019-05-09T09:26:54.582Z,68.12
2019-05-09T09:27:54.553Z,68.01
2019-05-09T09:28:54.539Z,68.70
2019-05-09T09:29:54.532Z,70.32
2019-05-09T09:30:54.570Z,68.70
2019-05-09T09:31:54.512Z,66.56
2019-05-09T09:32:54.511Z,66.94
2019-05-09T09:33:54.488Z,66.97
2019-05-09T09:34:54.474Z,64.95
2019-05-09T09:36:03.121Z,64.67
2019-05-09T09:37:05.271Z,66.60
2019-05-09T09:38:03.189Z,66.60
2019-05-09T09:39:03.068Z,67.38
2019-05-09T09:39:54.476Z,65.76
2019-05-09T09:40:54.412Z,66.67
2019-05-09T09:41:54.447Z,67.38
2019-05-09T09:42:54.449Z,67.58
2019-05-09T09:43:54.492Z,67.14
2019-05-09T09:44:54.387Z,65.29
2019-05-09T09:46:07.200Z,65.03
2019-05-09T09:46:55.418Z,64.02
2019-05-09T09:47:54.468Z,64.29
2019-05-09T09:48:54.322Z,61.96
2019-05-09T09:49:55.143Z,61.83
2019-05-09T09:50:54.294Z,61.16
2019-05-09T09:51:54.284Z,61.99
2019-05-09T09:52:54.318Z,62.23
2019-05-09T09:53:54.263Z,62.99
2019-05-09T09:54:54.256Z,64.34
2019-05-09T09:55:54.251Z,64.72
2019-05-09T09:56:54.230Z,64.82
2019-05-09T09:57:54.227Z,65.12
2019-05-09T09:58:54.200Z,64.92
2019-05-09T09:59:54.195Z,64.51
2019-05-09T10:00:54.191Z,64.92
2019-05-09T10:01:54.176Z,65.36
2019-05-09T10:02:54.159Z,65.76
2019-05-09T10:03:54.180Z,64.64
2019-05-09T10:04:54.168Z,64.78
2019-05-09T10:05:54.138Z,65.39
2019-05-09T10:06:54.133Z,65.39
2019-05-09T10:07:54.101Z,66.13
2019-05-09T10:08:54.089Z,65.42
2019-05-09T10:09:54.128Z,67.75
2019-05-09T10:10:54.075Z,67.85
2019-05-09T10:11:57.053Z,66.19
2019-05-09T10:12:55.067Z,66.74
2019-05-09T10:13:54.104Z,66.94
2019-05-09T10:14:54.030Z,64.86
2019-05-09T10:15:54.029Z,64.73
2019-05-09T10:16:54.056Z,64.49
2019-05-09T10:17:54.007Z,62.04
2019-05-09T10:18:53.997Z,62.74
2019-05-09T10:19:53.982Z,61.40
2019-05-09T10:20:53.956Z,61.60
2019-05-09T10:21:54.047Z,59.86
2019-05-09T10:22:59.680Z,58.67
2019-05-09T10:23:57.388Z,59.61
2019-05-09T10:24:53.946Z,58.80
2019-05-09T10:25:53.897Z,59.58
2019-05-09T10:26:53.886Z,59.31
2019-05-09T10:27:53.892Z,59.84
2019-05-09T10:28:53.864Z,61.96
2019-05-09T10:29:53.871Z,59.77
2019-05-09T10:30:53.843Z,63.41
2019-05-09T10:31:53.832Z,62.10
2019-05-09T10:32:53.886Z,62.50
2019-05-09T10:33:53.813Z,61.19
2019-05-09T10:34:53.799Z,63.08
2019-05-09T10:35:53.814Z,62.70
2019-05-09T10:36:53.782Z,62.98
2019-05-09T10:37:53.771Z,61.53
2019-05-09T10:38:53.793Z,61.71
2019-05-09T10:39:53.739Z,59.76
2019-05-09T10:40:53.732Z,59.05
2019-05-09T10:41:53.719Z,59.38
2019-05-09T10:42:53.716Z,57.87
2019-05-09T10:43:53.692Z,59.14
2019-05-09T10:44:53.728Z,59.87
2019-05-09T10:45:53.676Z,60.07
2019-05-09T10:46:58.806Z,60.38
2019-05-09T10:47:54.647Z,60.22
2019-05-09T10:48:53.635Z,61.63
2019-05-09T10:49:53.625Z,60.09
2019-05-09T10:50:54.827Z,60.42
2019-05-09T10:51:53.612Z,60.72
2019-05-09T10:52:53.593Z,60.02
2019-05-09T10:53:53.582Z,59.69
2019-05-09T10:54:53.570Z,60.39
2019-05-09T10:55:53.568Z,58.98
2019-05-09T10:56:53.614Z,58.30
2019-05-09T10:57:53.549Z,59.71
2019-05-09T10:58:53.524Z,58.60
2019-05-09T10:59:53.515Z,59.84
2019-05-09T11:00:53.502Z,60.98
2019-05-09T11:01:53.491Z,60.25
2019-05-09T11:02:53.516Z,58.93
2019-05-09T11:03:53.465Z,60.07
2019-05-09T11:04:53.460Z,60.35
2019-05-09T11:05:53.442Z,60.88
2019-05-09T11:06:53.434Z,61.49
2019-05-09T11:07:53.442Z,62.30
2019-05-09T11:08:53.436Z,61.19
2019-05-09T11:09:53.402Z,61.79
2019-05-09T11:10:53.390Z,61.19
2019-05-09T11:11:53.414Z,60.81
2019-05-09T11:12:53.367Z,60.81
2019-05-09T11:13:53.398Z,61.41
2019-05-09T11:14:53.396Z,62.02
2019-05-09T11:15:53.368Z,62.53
2019-05-09T11:17:06.710Z,62.93
2019-05-09T11:17:54.309Z,62.84
2019-05-09T11:18:53.296Z,62.43
2019-05-09T11:19:53.330Z,61.62
2019-05-09T11:20:53.282Z,61.59
2019-05-09T11:21:53.264Z,61.99
2019-05-09T11:22:53.253Z,61.66
2019-05-09T11:23:53.245Z,59.64
2019-05-09T11:24:53.240Z,59.03
2019-05-09T11:25:53.253Z,58.93
2019-05-09T11:26:53.212Z,58.93
2019-05-09T11:28:06.714Z,58.80
2019-05-09T11:28:54.182Z,57.69
2019-05-09T11:29:53.172Z,58.98
2019-05-09T11:30:53.162Z,60.94
2019-05-09T11:31:53.205Z,55.90
2019-05-09T11:32:53.143Z,56.07
2019-05-09T11:33:53.132Z,53.92
2019-05-09T11:34:53.149Z,54.99
2019-05-09T11:35:53.152Z,54.25
2019-05-09T11:36:53.129Z,53.34
2019-05-09T11:37:53.097Z,53.65
2019-05-09T11:38:53.109Z,51.64
2019-05-09T11:39:53.112Z,52.06
2019-05-09T11:40:53.053Z,52.49
2019-05-09T11:41:53.044Z,53.83
2019-05-09T11:42:53.043Z,53.05
2019-05-09T11:43:53.015Z,53.67
2019-05-09T11:44:53.015Z,53.50
2019-05-09T11:45:52.991Z,54.91
2019-05-09T11:46:53.035Z,55.24
2019-05-09T11:47:52.972Z,55.04
2019-05-09T11:48:52.981Z,54.13
2019-05-09T11:49:52.963Z,55.24
2019-05-09T11:50:52.950Z,55.74
2019-05-09T11:51:52.927Z,55.44
2019-05-09T11:52:52.948Z,56.65
2019-05-09T11:53:52.904Z,56.05
2019-05-09T11:54:52.923Z,57.16
2019-05-09T11:55:52.915Z,57.36
2019-05-09T11:56:52.875Z,56.83
2019-05-09T11:57:52.862Z,57.23
2019-05-09T11:58:52.863Z,54.81
2019-05-09T11:59:52.836Z,55.72
2019-05-09T12:00:52.843Z,55.21
2019-05-09T12:01:52.813Z,54.51
2019-05-09T12:02:52.804Z,54.53
2019-05-09T12:03:52.796Z,55.85
2019-05-09T12:04:52.820Z,56.76
2019-05-09T12:05:52.773Z,56.25
2019-05-09T12:06:52.775Z,54.13
2019-05-09T12:07:52.773Z,55.44
2019-05-09T12:08:52.741Z,55.24
2019-05-09T12:09:52.725Z,57.76
2019-05-09T12:10:52.743Z,57.03
2019-05-09T12:11:52.723Z,55.62
2019-05-09T12:12:52.694Z,57.34
2019-05-09T12:13:52.710Z,55.41
2019-05-09T12:14:52.689Z,55.32
2019-05-09T12:15:52.657Z,54.43
2019-05-09T12:16:52.665Z,55.94
2019-05-09T12:17:58.186Z,55.36
2019-05-09T12:18:53.621Z,57.26
2019-05-09T12:20:08.129Z,58.47
2019-05-09T12:20:53.610Z,55.62
2019-05-09T12:21:52.587Z,56.35
2019-05-09T12:22:52.619Z,56.43
2019-05-09T12:23:52.578Z,55.99
2019-05-09T12:24:54.044Z,53.45
2019-05-09T12:25:52.540Z,54.94
2019-05-09T12:26:52.528Z,53.63
2019-05-09T12:27:52.521Z,53.75
2019-05-09T12:28:52.718Z,53.67
2019-05-09T12:29:52.499Z,53.47
2019-05-09T12:30:52.494Z,54.08
2019-05-09T12:31:52.478Z,54.38
2019-05-09T12:32:52.461Z,54.58
2019-05-09T12:33:52.463Z,53.98
2019-05-09T12:34:52.468Z,54.21
2019-05-09T12:35:52.450Z,55.01
2019-05-09T12:36:52.416Z,54.81
2019-05-09T12:37:52.406Z,54.91
2019-05-09T12:38:52.420Z,56.02
2019-05-09T12:39:52.382Z,57.54
2019-05-09T12:40:52.418Z,55.92
2019-05-09T12:41:52.370Z,54.83
2019-05-09T12:42:52.347Z,55.54
2019-05-09T12:43:52.338Z,55.98
2019-05-09T12:44:52.337Z,55.67
2019-05-09T12:45:52.313Z,55.98
2019-05-09T12:46:52.331Z,57.29
2019-05-09T12:48:06.460Z,56.88
2019-05-09T12:48:53.278Z,55.36
2019-05-09T12:49:52.269Z,55.87
2019-05-09T12:50:52.269Z,56.71
2019-05-09T12:51:52.248Z,58.40
2019-05-09T12:52:52.281Z,56.58
2019-05-09T12:53:52.223Z,56.91